Terminal Aerodrome Forecast
Issued by NWS

Home | Current Version | Previous Version | Text Only | Print | Product List | Glossary On
Versions: 1 2 3 4 5 6 7 8 9 10 11 12 13 14 15
299
FTUS42 KMLB 071128
TAFFPR
TAF
KFPR 071128Z 0712/0812 31015G22KT P6SM OVC010
     FM071500 30018G27KT P6SM BKN020
     FM071700 30020G30KT P6SM SCT025
     FM080000 30010KT P6SM SKC=

USA.gov is the U.S. government's official web portal to all federal, state and local government web resources and services.